Time;durP1;ratioP1;P1;durP2;ratioP2;P2;SDS_P1;SDS_P2;PMS_P1;PMS_P2;Temp;Humidity;BMP_temperature;BMP_pressure;BME280_temperature;BME280_humidity;BME280_pressure;Samples;Min_cycle;Max_cycle;Signal;HPM_P1;HPM_P2
2021/10/16 00:01:43;;;;;;;14.90;5.30;;;8.60;93.70;;;;;;5051428;28;20041;-70
2021/10/16 00:04:10;;;;;;;9.80;4.63;;;8.60;93.70;;;;;;5029775;28;20057;-70
2021/10/16 00:06:38;;;;;;;8.77;4.00;;;8.60;94.00;;;;;;5033748;28;20072;-71
2021/10/16 00:09:05;;;;;;;10.18;3.95;;;8.60;93.70;;;;;;5049335;28;20144;-70
2021/10/16 00:11:32;;;;;;;8.85;4.07;;;8.50;93.70;;;;;;5049440;28;20049;-70
2021/10/16 00:13:59;;;;;;;11.05;4.25;;;8.50;94.00;;;;;;5032777;28;20136;-71
2021/10/16 00:16:26;;;;;;;10.15;3.88;;;8.40;94.00;;;;;;5032094;28;20067;-70
2021/10/16 00:18:55;;;;;;;8.65;3.95;;;8.40;94.10;;;;;;5048725;28;20049;-71
2021/10/16 00:21:22;;;;;;;5.85;3.60;;;8.40;94.30;;;;;;5011896;28;20141;-71
2021/10/16 00:23:49;;;;;;;10.85;4.28;;;8.30;94.20;;;;;;5024183;28;20153;-71
2021/10/16 00:26:16;;;;;;;7.85;4.45;;;8.30;94.50;;;;;;5047969;28;20056;-70
2021/10/16 00:28:43;;;;;;;8.30;4.25;;;8.30;94.20;;;;;;5048569;28;20045;-70
2021/10/16 00:31:11;;;;;;;11.27;4.82;;;8.30;94.20;;;;;;5033075;28;20076;-71
2021/10/16 00:33:38;;;;;;;10.93;4.85;;;8.20;94.30;;;;;;5048579;28;20052;-70
2021/10/16 00:36:05;;;;;;;10.05;4.53;;;8.30;94.60;;;;;;5050146;28;20132;-71
2021/10/16 00:38:32;;;;;;;8.77;5.00;;;8.20;94.10;;;;;;5032088;28;20136;-71
2021/10/16 00:40:59;;;;;;;10.68;4.95;;;8.20;94.00;;;;;;5049330;28;20045;-70
2021/10/16 00:43:26;;;;;;;10.23;4.95;;;8.10;94.60;;;;;;5050016;28;20386;-71
2021/10/16 00:45:53;;;;;;;7.90;4.35;;;8.20;95.20;;;;;;5048471;28;20072;-71
2021/10/16 00:48:20;;;;;;;9.40;5.28;;;8.10;94.90;;;;;;5028295;28;20038;-71
2021/10/16 00:50:47;;;;;;;8.68;4.60;;;8.10;94.80;;;;;;5044301;28;20143;-71
2021/10/16 00:53:15;;;;;;;11.65;4.78;;;8.10;94.80;;;;;;5028541;28;20080;-71
2021/10/16 00:55:42;;;;;;;11.30;4.55;;;8.00;94.80;;;;;;5043144;28;20064;-70
2021/10/16 00:58:10;;;;;;;11.13;4.90;;;8.00;94.80;;;;;;5048001;28;20064;-70
2021/10/16 01:00:37;;;;;;;10.45;4.75;;;7.90;94.90;;;;;;5015982;28;20057;-70
2021/10/16 01:03:04;;;;;;;8.30;4.90;;;7.90;94.90;;;;;;5045136;28;20052;-71
2021/10/16 01:05:33;;;;;;;10.93;4.93;;;7.90;94.80;;;;;;5049051;28;20437;-69
2021/10/16 01:08:04;;;;;;;10.07;5.82;;;7.90;94.90;;;;;;5020321;28;20140;-69
2021/10/16 01:10:31;;;;;;;8.82;4.70;;;7.80;94.80;;;;;;5045330;28;20088;-71
2021/10/16 01:12:58;;;;;;;6.72;4.47;;;7.80;95.20;;;;;;5045028;28;20041;-70
2021/10/16 01:15:28;;;;;;;9.45;5.20;;;7.90;95.20;;;;;;5027590;28;20045;-70
2021/10/16 01:17:55;;;;;;;9.45;4.18;;;7.90;95.20;;;;;;5047949;28;20570;-70
2021/10/16 01:20:23;;;;;;;9.68;4.47;;;8.00;95.50;;;;;;5048063;28;20053;-70
2021/10/16 01:22:50;;;;;;;11.90;4.82;;;8.00;95.30;;;;;;5049690;28;20052;-70
2021/10/16 01:25:22;;;;;;;10.38;5.03;;;8.00;95.20;;;;;;5049194;28;20041;-70
2021/10/16 01:27:50;;;;;;;11.90;5.97;;;8.10;95.20;;;;;;5028933;28;20135;-71
2021/10/16 01:30:18;;;;;;;12.25;5.40;;;8.10;95.20;;;;;;5041305;28;20041;-69
2021/10/16 01:32:46;;;;;;;10.03;6.10;;;8.10;95.20;;;;;;5049008;28;20132;-72
2021/10/16 01:35:13;;;;;;;11.73;4.93;;;8.10;95.30;;;;;;5047527;28;20113;-69
2021/10/16 01:37:43;;;;;;;9.95;4.57;;;8.20;95.30;;;;;;5047960;28;20149;-70
2021/10/16 01:40:13;;;;;;;9.98;5.30;;;8.20;95.30;;;;;;5020232;28;20120;-70
2021/10/16 01:42:42;;;;;;;12.70;5.10;;;8.20;95.20;;;;;;5048027;28;20532;-70
2021/10/16 01:45:13;;;;;;;13.27;5.50;;;8.20;95.20;;;;;;5048436;28;20049;-70
2021/10/16 01:47:52;;;;;;;10.70;5.18;;;8.30;95.30;;;;;;5043675;28;20053;-70
2021/10/16 01:50:20;;;;;;;12.05;5.05;;;8.20;95.30;;;;;;5018742;28;20053;-70
2021/10/16 01:52:48;;;;;;;15.68;6.30;;;8.30;95.20;;;;;;5012316;28;20068;-70
2021/10/16 01:55:18;;;;;;;11.43;5.60;;;8.30;95.30;;;;;;5041226;28;20045;-70
2021/10/16 01:57:46;;;;;;;9.10;5.07;;;8.30;95.20;;;;;;5048897;28;20045;-70
2021/10/16 02:00:13;;;;;;;12.68;5.75;;;8.30;95.10;;;;;;5046658;28;20086;-70
2021/10/16 02:02:41;;;;;;;12.32;5.03;;;8.30;95.10;;;;;;5049716;28;20063;-71
2021/10/16 02:05:09;;;;;;;10.73;5.18;;;8.40;95.00;;;;;;5051158;28;20114;-70
2021/10/16 02:07:36;;;;;;;7.72;4.78;;;8.40;95.10;;;;;;5051116;28;20132;-70
2021/10/16 02:10:10;;;;;;;9.98;4.53;;;8.40;95.10;;;;;;5051165;28;20128;-70
2021/10/16 02:12:37;;;;;;;10.18;4.80;;;8.40;95.40;;;;;;5053039;28;20056;-70
2021/10/16 02:15:06;;;;;;;9.98;4.75;;;8.40;95.20;;;;;;5051692;28;20053;-70
2021/10/16 02:17:33;;;;;;;8.60;4.68;;;8.40;95.20;;;;;;5051599;28;20132;-70
2021/10/16 02:20:01;;;;;;;10.57;5.18;;;8.30;95.00;;;;;;5052372;28;20128;-70
2021/10/16 02:22:28;;;;;;;8.25;3.83;;;8.20;94.90;;;;;;5051293;28;20167;-70
2021/10/16 02:24:57;;;;;;;9.68;4.70;;;8.20;94.90;;;;;;5050908;28;20059;-70
2021/10/16 02:27:24;;;;;;;;;;;8.10;95.10;;;;;;5050880;28;20065;-70
2021/10/16 02:29:53;;;;;;;8.48;5.03;;;8.00;94.80;;;;;;5051465;28;19994;-70
2021/10/16 02:32:20;;;;;;;11.50;4.57;;;7.90;95.00;;;;;;5036543;28;20132;-69
2021/10/16 02:34:46;;;;;;;10.00;4.60;;;7.90;95.10;;;;;;5034427;28;20100;-69
2021/10/16 02:37:13;;;;;;;11.73;5.68;;;7.80;95.30;;;;;;5051773;28;20069;-70
2021/10/16 02:39:41;;;;;;;7.88;4.80;;;7.70;95.40;;;;;;5027152;28;20059;-70
2021/10/16 02:42:09;;;;;;;11.23;5.35;;;7.70;95.70;;;;;;5049715;28;20060;-69
2021/10/16 02:44:36;;;;;;;10.20;4.68;;;7.70;95.60;;;;;;5050396;28;20063;-69
2021/10/16 02:47:03;;;;;;;9.40;5.10;;;7.70;95.60;;;;;;5041936;28;20052;-71
2021/10/16 02:49:30;;;;;;;7.28;4.30;;;7.70;95.60;;;;;;5051575;28;20053;-70
2021/10/16 02:51:57;;;;;;;9.65;5.55;;;7.60;95.60;;;;;;5050389;28;20085;-70
2021/10/16 02:54:24;;;;;;;9.98;4.72;;;7.60;95.60;;;;;;5050140;28;20128;-71
2021/10/16 02:56:51;;;;;;;9.57;4.38;;;7.60;95.80;;;;;;5050559;28;20128;-69
2021/10/16 02:59:21;;;;;;;7.35;4.68;;;7.60;95.90;;;;;;5049726;28;20048;-70
2021/10/16 03:01:50;;;;;;;9.57;4.20;;;7.60;96.00;;;;;;5053252;28;20049;-71
2021/10/16 03:04:17;;;;;;;10.15;4.70;;;7.50;96.00;;;;;;5034422;28;20412;-71
2021/10/16 03:06:45;;;;;;;12.18;4.72;;;7.50;96.00;;;;;;5030679;28;20060;-70
2021/10/16 03:09:24;;;;;;;11.23;5.85;;;7.50;95.90;;;;;;5043413;28;20428;-70
2021/10/16 03:11:51;;;;;;;10.15;4.80;;;7.50;96.00;;;;;;5050054;28;20084;-70
2021/10/16 03:14:18;;;;;;;7.95;4.75;;;7.50;96.20;;;;;;5031785;28;20124;-71
2021/10/16 03:16:45;;;;;;;13.82;4.40;;;7.50;95.80;;;;;;5047487;28;20045;-71
2021/10/16 03:19:12;;;;;;;9.02;3.90;;;7.50;96.20;;;;;;5050181;28;20040;-71
2021/10/16 03:21:39;;;;;;;9.70;4.75;;;7.50;96.40;;;;;;5050548;28;20547;-70
2021/10/16 03:24:06;;;;;;;8.90;4.18;;;7.50;96.10;;;;;;5050549;28;20145;-71
2021/10/16 03:26:35;;;;;;;6.50;4.22;;;7.50;96.20;;;;;;5050309;28;20061;-70
2021/10/16 03:29:02;;;;;;;10.95;4.30;;;7.50;96.10;;;;;;5033796;28;20124;-69
2021/10/16 03:31:29;;;;;;;7.35;4.32;;;7.50;96.50;;;;;;5044154;28;20120;-70
2021/10/16 03:33:56;;;;;;;7.72;3.83;;;7.50;96.30;;;;;;5051426;28;20057;-70
2021/10/16 03:36:25;;;;;;;9.40;3.88;;;7.50;96.20;;;;;;5032844;28;20107;-70
2021/10/16 03:38:54;;;;;;;13.67;5.07;;;7.60;96.20;;;;;;5039818;28;20056;-71
2021/10/16 03:41:23;;;;;;;8.40;4.03;;;7.60;96.40;;;;;;5047219;28;20119;-70
2021/10/16 03:43:51;;;;;;;11.02;4.13;;;7.60;96.60;;;;;;5034046;28;20053;-70
2021/10/16 03:46:19;;;;;;;10.70;3.80;;;7.70;96.60;;;;;;5048726;28;20140;-70
2021/10/16 03:48:46;;;;;;;10.90;3.83;;;7.70;96.60;;;;;;5049388;28;20457;-70
2021/10/16 03:51:15;;;;;;;7.20;3.63;;;7.80;96.50;;;;;;5016291;28;20077;-70
2021/10/16 03:53:42;;;;;;;7.10;3.28;;;7.80;96.20;;;;;;5051060;28;20052;-71
2021/10/16 03:56:10;;;;;;;12.82;4.53;;;7.80;96.70;;;;;;5049515;28;20052;-71
2021/10/16 03:58:42;;;;;;;11.15;3.88;;;7.80;96.40;;;;;;5050676;28;20498;-72
2021/10/16 04:01:09;;;;;;;10.30;4.38;;;7.80;96.30;;;;;;5030678;28;20539;-71
2021/10/16 04:03:37;;;;;;;10.98;3.70;;;7.90;96.10;;;;;;5030017;28;20096;-70
2021/10/16 04:06:04;;;;;;;8.50;3.55;;;8.00;96.30;;;;;;5047241;28;20045;-70
2021/10/16 04:08:31;;;;;;;12.77;4.15;;;8.00;96.00;;;;;;5032490;28;20045;-69
2021/10/16 04:11:00;;;;;;;19.20;6.20;;;8.10;96.00;;;;;;5049240;28;20124;-70
2021/10/16 04:13:29;;;;;;;9.77;3.72;;;8.10;95.90;;;;;;5032805;28;20055;-70
2021/10/16 04:15:57;;;;;;;7.78;4.03;;;8.10;95.70;;;;;;5048421;28;20053;-72
2021/10/16 04:18:25;;;;;;;6.72;3.00;;;8.10;95.80;;;;;;5011131;28;20132;-70
2021/10/16 04:20:54;;;;;;;18.40;11.85;;;8.10;96.00;;;;;;5045081;28;20103;-69
2021/10/16 04:23:23;;;;;;;25.75;17.73;;;8.10;96.10;;;;;;5051275;28;20044;-71
2021/10/16 04:25:50;;;;;;;10.50;7.05;;;8.20;96.10;;;;;;5049578;28;20530;-70
2021/10/16 04:28:20;;;;;;;12.68;5.40;;;8.20;95.90;;;;;;5048886;28;20123;-70
2021/10/16 04:30:47;;;;;;;9.25;4.13;;;8.30;96.00;;;;;;5049261;28;20123;-71
2021/10/16 04:33:15;;;;;;;10.55;4.18;;;8.30;95.90;;;;;;5048784;28;20045;-71
2021/10/16 04:35:42;;;;;;;13.32;3.95;;;8.40;96.00;;;;;;5048834;28;20091;-70
2021/10/16 04:38:16;;;;;;;15.65;4.55;;;8.40;95.80;;;;;;5050471;28;20511;-70
2021/10/16 04:40:43;;;;;;;6.32;3.60;;;8.50;95.90;;;;;;5048189;28;20069;-71
2021/10/16 04:43:10;;;;;;;10.13;3.90;;;8.50;95.70;;;;;;5048788;28;20485;-72
2021/10/16 04:45:39;;;;;;;5.53;3.03;;;8.50;95.90;;;;;;5047318;28;20045;-71
2021/10/16 04:48:09;;;;;;;12.18;4.03;;;8.50;96.10;;;;;;5048914;28;20076;-72
2021/10/16 04:50:36;;;;;;;8.75;3.55;;;8.50;95.90;;;;;;5049521;28;20231;-72
2021/10/16 04:53:04;;;;;;;13.90;4.30;;;8.50;95.60;;;;;;5049612;28;20045;-70
2021/10/16 04:55:31;;;;;;;8.45;3.95;;;8.60;95.40;;;;;;5049259;28;20448;-71
2021/10/16 04:58:01;;;;;;;9.23;4.00;;;8.60;95.40;;;;;;5048417;28;20049;-71
2021/10/16 05:00:29;;;;;;;10.50;3.60;;;8.60;95.20;;;;;;5048498;28;20519;-71
2021/10/16 05:02:56;;;;;;;8.65;4.15;;;8.60;95.30;;;;;;5048505;28;20041;-70
2021/10/16 05:05:23;;;;;;;14.85;4.05;;;8.60;95.20;;;;;;5049581;28;20172;-70
2021/10/16 05:07:50;;;;;;;12.50;4.45;;;8.60;95.20;;;;;;5050791;28;20041;-70
2021/10/16 05:10:20;;;;;;;10.13;4.10;;;8.60;95.30;;;;;;5048444;28;20112;-71
2021/10/16 05:12:48;;;;;;;11.85;4.15;;;8.60;95.50;;;;;;5050459;28;20045;-72
2021/10/16 05:15:15;;;;;;;11.70;3.60;;;8.60;95.50;;;;;;5048934;28;20060;-70
2021/10/16 05:17:42;;;;;;;12.52;3.80;;;8.60;95.70;;;;;;5049407;28;20099;-70
2021/10/16 05:20:09;;;;;;;8.45;3.55;;;8.60;95.70;;;;;;5047843;28;20159;-70
2021/10/16 05:22:36;;;;;;;9.25;4.35;;;8.60;95.60;;;;;;5048149;28;20049;-70
2021/10/16 05:25:03;;;;;;;7.45;3.92;;;8.70;95.60;;;;;;5048008;28;20041;-71
2021/10/16 05:27:30;;;;;;;11.57;3.65;;;8.70;95.90;;;;;;5047671;28;20099;-71
2021/10/16 05:29:57;;;;;;;10.23;3.80;;;8.70;95.90;;;;;;5049619;28;20105;-71
2021/10/16 05:32:24;;;;;;;11.20;4.07;;;8.70;95.90;;;;;;5049651;28;20456;-71
2021/10/16 05:34:51;;;;;;;11.13;3.72;;;8.80;96.00;;;;;;5047647;28;20123;-71
2021/10/16 05:37:18;;;;;;;11.75;3.58;;;8.80;95.80;;;;;;5047080;28;20049;-70
2021/10/16 05:39:45;;;;;;;13.10;4.70;;;8.80;95.80;;;;;;5051529;28;20045;-70
2021/10/16 05:42:12;;;;;;;9.13;3.83;;;8.80;95.60;;;;;;5019103;28;20056;-70
2021/10/16 05:44:39;;;;;;;9.85;3.88;;;8.90;95.70;;;;;;5050524;28;20045;-71
2021/10/16 05:47:06;;;;;;;10.30;3.75;;;8.90;95.80;;;;;;5050534;28;20120;-71
2021/10/16 05:49:33;;;;;;;13.10;4.47;;;8.90;95.70;;;;;;5050928;28;20068;-70
2021/10/16 05:52:00;;;;;;;17.00;3.80;;;9.00;95.80;;;;;;5053355;28;20052;-71
2021/10/16 05:54:27;;;;;;;9.52;3.97;;;9.00;95.60;;;;;;5052486;28;20083;-71
2021/10/16 05:56:54;;;;;;;11.52;3.83;;;9.10;95.50;;;;;;5050936;28;20148;-71
2021/10/16 05:59:21;;;;;;;11.90;4.85;;;9.10;95.50;;;;;;5051438;28;20045;-71
2021/10/16 06:01:48;;;;;;;9.68;3.92;;;9.10;95.50;;;;;;5051618;28;20041;-71
2021/10/16 06:04:15;;;;;;;15.02;3.92;;;9.10;95.30;;;;;;5051525;28;20052;-70
2021/10/16 06:06:42;;;;;;;13.70;3.83;;;9.20;95.50;;;;;;5035381;28;20049;-72
2021/10/16 06:09:10;;;;;;;11.07;3.25;;;9.20;95.50;;;;;;5053259;28;20138;-71
2021/10/16 06:11:37;;;;;;;11.82;3.67;;;9.20;95.60;;;;;;5034596;28;20097;-71
2021/10/16 06:14:04;;;;;;;8.57;3.05;;;9.30;95.60;;;;;;5052423;28;20041;-71
2021/10/16 06:16:31;;;;;;;7.47;3.35;;;9.30;95.50;;;;;;5031597;28;20634;-70
2021/10/16 06:19:03;;;;;;;11.95;4.22;;;9.30;95.50;;;;;;5050847;28;20088;-70
2021/10/16 06:21:30;;;;;;;11.60;4.20;;;9.30;95.70;;;;;;5051845;28;20055;-70
2021/10/16 06:23:57;;;;;;;7.60;3.22;;;9.30;95.60;;;;;;5050697;28;20091;-70
2021/10/16 06:26:24;;;;;;;13.18;3.83;;;9.30;95.60;;;;;;5050706;28;20149;-70
2021/10/16 06:28:51;;;;;;;16.27;3.05;;;9.30;95.70;;;;;;5052378;28;20075;-71
2021/10/16 06:31:18;;;;;;;8.57;3.17;;;9.30;96.00;;;;;;5053115;28;20151;-71
2021/10/16 06:33:45;;;;;;;9.25;3.70;;;9.30;95.90;;;;;;5052520;28;20045;-70
2021/10/16 06:36:12;;;;;;;11.80;3.63;;;9.30;96.00;;;;;;5052239;28;20381;-70
2021/10/16 06:38:39;;;;;;;9.23;3.22;;;9.40;96.00;;;;;;5033985;28;20079;-71
2021/10/16 06:41:06;;;;;;;11.70;3.50;;;9.40;96.10;;;;;;5034492;28;20088;-70
2021/10/16 06:43:33;;;;;;;9.70;3.90;;;9.50;96.10;;;;;;5034341;28;20052;-71
2021/10/16 06:46:00;;;;;;;17.48;4.50;;;9.50;96.20;;;;;;5049889;28;20459;-71
2021/10/16 06:48:27;;;;;;;10.70;3.55;;;9.60;96.20;;;;;;5050130;28;20096;-70
2021/10/16 06:50:54;;;;;;;13.10;4.25;;;9.60;96.10;;;;;;5050850;28;20079;-70
2021/10/16 06:53:21;;;;;;;11.35;4.03;;;9.60;96.10;;;;;;5050373;28;20052;-70
2021/10/16 06:55:48;;;;;;;13.35;3.50;;;9.70;96.20;;;;;;5050208;28;20049;-70
2021/10/16 06:58:15;;;;;;;9.90;3.67;;;9.70;96.30;;;;;;5051596;28;20048;-70
2021/10/16 07:00:42;;;;;;;8.65;3.80;;;9.70;95.90;;;;;;5034023;28;20457;-70
2021/10/16 07:03:13;;;;;;;10.07;3.08;;;9.80;96.10;;;;;;5050165;28;20094;-70
2021/10/16 07:05:41;;;;;;;10.60;3.22;;;9.80;96.00;;;;;;5031238;28;20049;-70
2021/10/16 07:08:09;;;;;;;9.68;2.38;;;9.90;96.10;;;;;;5031708;28;20089;-70
2021/10/16 07:10:38;;;;;;;12.88;3.33;;;9.90;96.30;;;;;;5051205;28;20472;-70
2021/10/16 07:13:05;;;;;;;10.57;3.63;;;9.90;96.20;;;;;;5048417;28;20067;-70
2021/10/16 07:15:33;;;;;;;15.25;3.28;;;10.00;96.00;;;;;;5029828;28;20054;-70
2021/10/16 07:18:00;;;;;;;12.15;4.28;;;10.10;96.20;;;;;;5054150;28;20122;-70
2021/10/16 07:20:28;;;;;;;10.02;2.90;;;10.10;96.20;;;;;;5029721;28;20068;-70
2021/10/16 07:22:55;;;;;;;9.63;3.33;;;10.20;96.30;;;;;;5045906;28;20057;-70
2021/10/16 07:25:22;;;;;;;9.38;3.55;;;10.20;96.40;;;;;;5049255;28;20568;-70
2021/10/16 07:27:51;;;;;;;12.55;3.28;;;10.30;95.90;;;;;;5049595;28;20043;-70
2021/10/16 07:30:19;;;;;;;7.65;2.88;;;10.30;96.10;;;;;;5033789;28;20446;-70
2021/10/16 07:32:46;;;;;;;13.82;3.88;;;10.40;96.20;;;;;;5050887;28;20235;-70
2021/10/16 07:35:13;;;;;;;10.13;3.38;;;10.40;95.90;;;;;;5049769;28;20051;-70
2021/10/16 07:37:40;;;;;;;9.35;3.10;;;10.50;96.00;;;;;;5031451;28;20177;-70
2021/10/16 07:40:08;;;;;;;10.18;2.72;;;10.50;95.60;;;;;;5050348;28;20408;-69
2021/10/16 07:42:35;;;;;;;14.07;3.45;;;10.60;95.20;;;;;;5032723;28;20131;-70
2021/10/16 07:45:03;;;;;;;11.90;2.97;;;10.60;95.20;;;;;;5036618;28;20381;-71
2021/10/16 07:47:30;;;;;;;11.18;4.00;;;10.70;95.20;;;;;;5039406;28;20132;-70
2021/10/16 07:49:57;;;;;;;7.57;2.63;;;10.70;95.60;;;;;;5049209;28;20076;-70
2021/10/16 07:52:24;;;;;;;11.80;3.03;;;10.70;95.60;;;;;;5049579;28;20090;-70
2021/10/16 07:54:51;;;;;;;11.15;2.83;;;10.80;95.40;;;;;;5050844;28;20067;-70
2021/10/16 07:57:19;;;;;;;14.55;3.20;;;10.80;95.40;;;;;;5049925;28;20049;-70
2021/10/16 07:59:47;;;;;;;7.00;3.85;;;10.80;95.50;;;;;;5032599;28;20048;-70
2021/10/16 08:02:14;;;;;;;9.32;3.10;;;10.90;95.70;;;;;;5051741;28;20045;-70
2021/10/16 08:04:41;;;;;;;12.25;3.95;;;10.90;95.70;;;;;;5028535;28;20091;-69
2021/10/16 08:07:11;;;;;;;9.00;3.22;;;10.90;95.90;;;;;;5048339;28;20515;-71
2021/10/16 08:09:38;;;;;;;12.95;3.75;;;11.00;96.00;;;;;;5048920;28;20071;-72
2021/10/16 08:12:05;;;;;;;10.48;3.75;;;11.00;96.10;;;;;;5050349;28;20048;-69
2021/10/16 08:14:32;;;;;;;10.82;4.53;;;11.00;96.10;;;;;;5050398;28;20056;-71
2021/10/16 08:17:00;;;;;;;21.77;4.63;;;11.00;96.40;;;;;;5049602;28;20180;-71
2021/10/16 08:19:27;;;;;;;14.68;4.43;;;11.10;96.00;;;;;;5032381;28;20053;-69
2021/10/16 08:21:54;;;;;;;14.73;4.13;;;11.10;96.10;;;;;;5048790;28;20107;-72
2021/10/16 08:24:21;;;;;;;22.35;4.93;;;11.20;96.10;;;;;;5049454;28;20088;-71
2021/10/16 08:26:53;;;;;;;24.95;6.65;;;11.30;96.30;;;;;;5035043;28;20056;-69
2021/10/16 08:29:20;;;;;;;25.63;7.45;;;11.30;96.10;;;;;;5048618;28;20056;-69
2021/10/16 08:31:47;;;;;;;19.25;5.97;;;11.40;96.50;;;;;;5048860;28;20287;-69
2021/10/16 08:34:14;;;;;;;15.05;4.60;;;11.40;96.20;;;;;;5049597;28;20128;-69
2021/10/16 08:36:41;;;;;;;17.02;5.07;;;11.50;96.40;;;;;;5010636;28;20041;-69
2021/10/16 08:39:08;;;;;;;14.52;4.78;;;11.60;96.20;;;;;;5047544;28;20072;-62
2021/10/16 08:41:36;;;;;;;227.85;183.85;;;11.60;96.20;;;;;;5049231;28;20041;-63
2021/10/16 08:44:03;;;;;;;38.38;26.33;;;11.70;96.50;;;;;;5048251;28;20052;-69
2021/10/16 08:46:30;;;;;;;24.35;13.57;;;11.80;96.50;;;;;;5045596;28;20053;-71
2021/10/16 08:49:01;;;;;;;14.07;6.97;;;11.90;96.40;;;;;;5046055;28;20190;-71
2021/10/16 08:51:28;;;;;;;14.10;4.97;;;11.90;96.10;;;;;;5050150;28;20053;-70
2021/10/16 08:53:55;;;;;;;10.05;4.40;;;12.00;95.90;;;;;;5048610;28;20053;-70
2021/10/16 08:56:23;;;;;;;11.38;4.35;;;12.10;96.30;;;;;;5048208;28;20411;-70
2021/10/16 08:58:50;;;;;;;13.63;6.20;;;12.20;96.10;;;;;;5032522;28;20511;-71
2021/10/16 09:01:17;;;;;;;11.85;4.53;;;12.20;95.80;;;;;;5050932;28;20565;-70
2021/10/16 09:03:50;;;;;;;12.13;5.45;;;12.20;94.90;;;;;;5048424;28;20362;-70
2021/10/16 09:06:27;;;;;;;12.98;6.13;;;12.20;94.60;;;;;;5032455;28;20071;-70
2021/10/16 09:08:56;;;;;;;13.40;3.67;;;12.30;95.10;;;;;;5049825;28;20048;-70
2021/10/16 09:11:24;;;;;;;6.43;3.00;;;12.30;94.70;;;;;;5039601;28;20483;-70
2021/10/16 09:14:00;;;;;;;6.65;3.20;;;12.40;94.40;;;;;;5051371;28;20059;-70
2021/10/16 09:16:40;;;;;;;6.88;3.00;;;12.40;93.80;;;;;;5036080;28;20127;-70
2021/10/16 09:19:10;;;;;;;17.63;3.85;;;12.40;94.00;;;;;;5050339;28;20048;-70
2021/10/16 09:21:40;;;;;;;11.73;3.17;;;12.50;93.70;;;;;;5052198;28;20057;-70
2021/10/16 09:24:10;;;;;;;12.57;3.55;;;12.50;93.90;;;;;;5034105;28;20419;-70
2021/10/16 09:26:38;;;;;;;;;;;12.60;93.90;;;;;;5034959;28;20056;-71
2021/10/16 09:29:06;;;;;;;9.57;3.65;;;12.60;94.40;;;;;;5067193;28;20351;-71
2021/10/16 09:31:44;;;;;;;10.52;4.28;;;12.60;94.80;;;;;;5051158;28;20136;-71
2021/10/16 09:34:11;;;;;;;11.05;4.18;;;12.50;95.00;;;;;;5050138;28;20049;-71
2021/10/16 09:36:41;;;;;;;10.02;3.63;;;12.50;95.50;;;;;;5049636;28;20056;-71
2021/10/16 09:39:08;;;;;;;;;;;12.50;95.70;;;;;;5051639;28;20139;-71
2021/10/16 09:41:39;;;;;;;7.45;3.22;;;12.40;95.90;;;;;;5085332;28;20384;-71
2021/10/16 09:44:19;;;;;;;14.55;4.70;;;12.40;96.20;;;;;;5052258;28;20120;-71
2021/10/16 09:47:01;;;;;;;15.75;4.40;;;12.30;96.20;;;;;;5035021;28;20405;-71
2021/10/16 09:49:34;;;;;;;12.43;3.63;;;12.30;95.70;;;;;;5053159;28;20049;-71
2021/10/16 09:52:07;;;;;;;15.95;4.40;;;12.20;96.00;;;;;;5053128;28;20172;-72
2021/10/16 09:54:36;;;;;;;13.73;3.90;;;12.20;96.50;;;;;;5051376;28;20119;-72
2021/10/16 09:57:05;;;;;;;;;;;12.20;96.70;;;;;;5053077;28;20129;-72
2021/10/16 09:59:33;;;;;;;17.70;4.20;;;12.20;96.80;;;;;;5053148;28;19921;-72
2021/10/16 10:02:01;;;;;;;19.33;5.80;;;12.20;97.10;;;;;;5052117;28;20048;-72
2021/10/16 10:04:38;;;;;;;12.82;3.92;;;12.20;96.80;;;;;;5015036;28;20088;-72
2021/10/16 10:07:06;;;;;;;12.50;4.35;;;12.20;96.80;;;;;;5032005;28;20056;-72
2021/10/16 10:09:33;;;;;;;7.28;3.97;;;12.20;97.00;;;;;;5034090;28;20051;-72
2021/10/16 10:12:00;;;;;;;16.08;5.65;;;12.20;97.40;;;;;;5049610;28;20044;-72
2021/10/16 10:14:28;;;;;;;11.93;4.00;;;12.20;97.50;;;;;;5051505;28;20074;-72
2021/10/16 10:17:00;;;;;;;18.13;4.38;;;12.20;97.50;;;;;;5050276;28;20067;-72
2021/10/16 10:19:28;;;;;;;7.82;3.85;;;12.20;97.60;;;;;;5035165;28;20057;-72
2021/10/16 10:21:57;;;;;;;12.43;4.93;;;12.20;97.80;;;;;;5051830;28;20051;-72
2021/10/16 10:24:38;;;;;;;12.98;3.97;;;12.10;97.90;;;;;;5047961;28;20093;-72
2021/10/16 10:27:07;;;;;;;26.55;7.93;;;12.10;98.00;;;;;;5050965;28;20061;-73
2021/10/16 10:29:39;;;;;;;15.75;7.68;;;12.10;98.70;;;;;;5050217;28;20041;-72
2021/10/16 10:32:27;;;;;;;16.20;8.70;;;12.00;98.70;;;;;;5032610;28;20490;-70
2021/10/16 10:35:03;;;;;;;70.85;48.80;;;11.90;99.30;;;;;;5051271;28;20095;-65
2021/10/16 10:37:44;;;;;;;29.65;10.63;;;11.80;99.90;;;;;;5052973;28;20041;-65
2021/10/16 10:40:14;;;;;;;19.60;9.73;;;11.80;99.90;;;;;;5050953;28;20396;-67
2021/10/16 10:42:46;;;;;;;17.85;7.75;;;11.80;99.90;;;;;;5049904;28;20098;-67
2021/10/16 10:45:22;;;;;;;21.15;7.43;;;11.80;99.90;;;;;;5050593;28;20410;-66
2021/10/16 10:48:00;;;;;;;18.63;9.30;;;11.80;99.90;;;;;;5050919;28;20416;-67
2021/10/16 10:50:41;;;;;;;18.13;6.95;;;11.90;99.90;;;;;;5034473;28;20055;-67
2021/10/16 10:53:11;;;;;;;23.00;13.95;;;12.00;99.90;;;;;;5050525;28;20049;-71
2021/10/16 10:56:02;;;;;;;24.83;9.32;;;12.10;99.90;;;;;;5050386;28;20139;-68
2021/10/16 10:58:52;;;;;;;19.20;7.82;;;12.20;99.90;;;;;;5030463;28;20049;-68
2021/10/16 11:01:44;;;;;;;16.77;6.32;;;12.20;99.90;;;;;;5046816;28;20060;-69
2021/10/16 11:04:31;;;;;;;8.15;5.15;;;12.30;99.90;;;;;;5070538;28;20041;-71
2021/10/16 11:07:01;;;;;;;10.40;5.72;;;12.40;99.90;;;;;;5056162;28;20071;-75
2021/10/16 11:09:28;;;;;;;9.65;4.50;;;12.50;99.90;;;;;;5050378;28;20440;-67
2021/10/16 11:11:55;;;;;;;11.70;5.07;;;12.60;99.30;;;;;;5051173;28;20068;-67
2021/10/16 11:14:32;;;;;;;11.02;5.28;;;12.70;99.90;;;;;;5050691;28;20135;-67
2021/10/16 11:17:03;;;;;;;6.57;4.55;;;12.90;99.90;;;;;;5050343;28;20136;-68
2021/10/16 11:19:44;;;;;;;12.10;5.15;;;12.90;98.90;;;;;;5048068;28;20471;-72
2021/10/16 11:22:11;;;;;;;11.90;6.13;;;13.00;99.40;;;;;;5051091;28;20480;-72
2021/10/16 11:24:38;;;;;;;11.18;5.38;;;13.20;99.60;;;;;;5049556;28;20048;-73
2021/10/16 11:27:05;;;;;;;12.70;4.97;;;13.30;98.70;;;;;;5047822;28;20128;-74
2021/10/16 11:29:37;;;;;;;10.85;5.15;;;13.30;98.90;;;;;;5046534;28;20071;-79
2021/10/16 11:32:21;;;;;;;13.13;5.57;;;13.40;99.40;;;;;;5029298;28;20045;-73
2021/10/16 11:35:07;;;;;;;11.90;5.15;;;13.50;98.10;;;;;;5048732;28;20053;-75
2021/10/16 11:37:35;;;;;;;22.42;7.18;;;13.60;97.80;;;;;;5051013;28;20080;-69
2021/10/16 11:40:05;;;;;;;21.33;8.57;;;13.60;98.20;;;;;;5048864;28;20055;-73
2021/10/16 11:42:32;;;;;;;;;;;13.60;97.40;;;;;;5054765;28;20072;-75
2021/10/16 11:44:59;;;;;;;17.25;6.30;;;13.70;98.30;;;;;;5057568;28;19990;-71
2021/10/16 11:47:26;;;;;;;13.55;5.78;;;13.70;97.90;;;;;;5053511;28;20479;-74
2021/10/16 11:49:53;;;;;;;17.00;6.70;;;13.80;97.70;;;;;;5016538;28;20099;-73
2021/10/16 11:52:24;;;;;;;11.80;5.97;;;13.90;97.10;;;;;;5051180;28;20076;-73
2021/10/16 11:55:23;;;;;;;11.30;5.22;;;13.90;95.70;;;;;;5050697;28;20495;-74
2021/10/16 11:57:51;;;;;;;8.27;4.53;;;13.90;98.00;;;;;;5044420;28;20123;-73
2021/10/16 12:00:27;;;;;;;13.27;5.57;;;13.90;97.20;;;;;;5049307;28;20507;-74
2021/10/16 12:02:56;;;;;;;13.48;5.60;;;13.90;97.30;;;;;;5064894;28;20512;-69
2021/10/16 12:05:25;;;;;;;8.80;5.13;;;14.00;97.70;;;;;;5048758;28;20049;-66
2021/10/16 12:07:53;;;;;;;14.23;5.50;;;14.10;96.80;;;;;;5047829;28;20063;-64
2021/10/16 12:10:21;;;;;;;11.43;4.93;;;14.10;97.90;;;;;;5047546;28;20057;-65
2021/10/16 12:13:08;;;;;;;17.60;6.85;;;14.20;97.70;;;;;;5047446;28;20511;-64
2021/10/16 12:15:40;;;;;;;19.30;6.72;;;14.30;98.00;;;;;;5045327;28;20063;-72
2021/10/16 12:18:24;;;;;;;13.50;6.07;;;14.40;97.10;;;;;;5047117;28;20076;-66
2021/10/16 12:20:53;;;;;;;12.43;6.03;;;14.50;96.30;;;;;;5044323;28;20137;-66
2021/10/16 12:23:21;;;;;;;12.80;5.50;;;14.60;97.00;;;;;;5049436;28;20132;-67
2021/10/16 12:25:54;;;;;;;16.30;6.40;;;14.70;96.10;;;;;;5031493;28;20484;-67
2021/10/16 12:28:22;;;;;;;11.43;5.30;;;14.80;96.40;;;;;;5042368;28;20472;-65
2021/10/16 12:31:03;;;;;;;88.25;67.45;;;14.90;96.50;;;;;;5032572;28;20091;-67
2021/10/16 12:33:30;;;;;;;19.65;9.02;;;15.00;96.00;;;;;;5031068;28;20053;-65
2021/10/16 12:36:02;;;;;;;11.07;7.88;;;15.00;95.60;;;;;;5048090;28;20152;-65
2021/10/16 12:38:45;;;;;;;10.57;7.22;;;15.10;96.40;;;;;;5048092;28;20297;-64
2021/10/16 12:41:45;;;;;;;11.43;7.45;;;15.10;96.50;;;;;;5016913;28;20100;-64
2021/10/16 12:44:12;;;;;;;13.93;7.10;;;15.30;97.00;;;;;;5043433;28;20127;-66
2021/10/16 12:46:39;;;;;;;11.32;7.65;;;15.30;96.10;;;;;;5046327;28;20518;-67
2021/10/16 12:49:06;;;;;;;14.35;7.20;;;15.30;96.20;;;;;;5048370;28;20044;-67
2021/10/16 12:51:43;;;;;;;12.80;8.25;;;15.30;95.70;;;;;;5047361;28;20076;-66
2021/10/16 12:54:10;;;;;;;9.18;7.18;;;15.20;95.40;;;;;;5047289;28;20513;-66
2021/10/16 12:56:37;;;;;;;10.45;7.82;;;15.10;95.80;;;;;;5047811;28;20049;-67